sensor_id;sensor_type;location;lat;lon;timestamp;temperature;humidity
27114;DHT22;14648;49.730;8.614;2022-07-09T00:00:35;19.70;51.70
27114;DHT22;14648;49.730;8.614;2022-07-09T00:03:01;19.60;51.70
27114;DHT22;14648;49.730;8.614;2022-07-09T00:05:27;19.60;51.80
27114;DHT22;14648;49.730;8.614;2022-07-09T00:07:53;19.60;51.90
27114;DHT22;14648;49.730;8.614;2022-07-09T00:10:19;19.50;52.10
27114;DHT22;14648;49.730;8.614;2022-07-09T00:12:44;19.50;52.20
27114;DHT22;14648;49.730;8.614;2022-07-09T00:15:10;19.40;52.20
27114;DHT22;14648;49.730;8.614;2022-07-09T00:17:36;19.40;52.30
27114;DHT22;14648;49.730;8.614;2022-07-09T00:20:02;19.40;52.40
27114;DHT22;14648;49.730;8.614;2022-07-09T00:22:31;19.30;52.50
27114;DHT22;14648;49.730;8.614;2022-07-09T00:24:57;19.30;52.60
27114;DHT22;14648;49.730;8.614;2022-07-09T00:27:24;19.30;52.70
27114;DHT22;14648;49.730;8.614;2022-07-09T00:29:49;19.30;52.70
27114;DHT22;14648;49.730;8.614;2022-07-09T00:32:15;19.20;52.70
27114;DHT22;14648;49.730;8.614;2022-07-09T00:34:42;19.20;52.80
27114;DHT22;14648;49.730;8.614;2022-07-09T00:37:08;19.20;52.90
27114;DHT22;14648;49.730;8.614;2022-07-09T00:39:34;19.20;53.00
27114;DHT22;14648;49.730;8.614;2022-07-09T00:42:08;19.20;53.00
27114;DHT22;14648;49.730;8.614;2022-07-09T00:44:35;19.10;53.30
27114;DHT22;14648;49.730;8.614;2022-07-09T00:47:03;19.10;53.20
27114;DHT22;14648;49.730;8.614;2022-07-09T00:49:30;19.10;53.40
27114;DHT22;14648;49.730;8.614;2022-07-09T00:51:57;19.00;53.30
27114;DHT22;14648;49.730;8.614;2022-07-09T00:54:24;19.00;53.50
27114;DHT22;14648;49.730;8.614;2022-07-09T00:56:52;18.90;53.60
27114;DHT22;14648;49.730;8.614;2022-07-09T00:59:18;18.90;53.70
27114;DHT22;14648;49.730;8.614;2022-07-09T01:01:45;18.80;53.60
27114;DHT22;14648;49.730;8.614;2022-07-09T01:04:11;18.80;53.70
27114;DHT22;14648;49.730;8.614;2022-07-09T01:06:37;18.80;53.70
27114;DHT22;14648;49.730;8.614;2022-07-09T01:09:03;18.80;53.80
27114;DHT22;14648;49.730;8.614;2022-07-09T01:11:30;18.80;53.90
27114;DHT22;14648;49.730;8.614;2022-07-09T01:13:56;18.80;53.90
27114;DHT22;14648;49.730;8.614;2022-07-09T01:16:30;18.70;54.00
27114;DHT22;14648;49.730;8.614;2022-07-09T01:18:58;18.70;54.30
27114;DHT22;14648;49.730;8.614;2022-07-09T01:21:23;18.70;54.10
27114;DHT22;14648;49.730;8.614;2022-07-09T01:23:49;18.60;54.20
27114;DHT22;14648;49.730;8.614;2022-07-09T01:26:15;18.60;54.20
27114;DHT22;14648;49.730;8.614;2022-07-09T01:28:42;18.60;54.30
27114;DHT22;14648;49.730;8.614;2022-07-09T01:31:07;18.60;54.40
27114;DHT22;14648;49.730;8.614;2022-07-09T01:33:33;18.60;54.50
27114;DHT22;14648;49.730;8.614;2022-07-09T01:35:59;18.50;54.50
27114;DHT22;14648;49.730;8.614;2022-07-09T01:38:25;18.50;54.60
27114;DHT22;14648;49.730;8.614;2022-07-09T01:40:51;18.50;54.70
27114;DHT22;14648;49.730;8.614;2022-07-09T01:43:19;18.40;54.60
27114;DHT22;14648;49.730;8.614;2022-07-09T01:45:45;18.50;54.80
27114;DHT22;14648;49.730;8.614;2022-07-09T01:48:10;18.40;54.80
27114;DHT22;14648;49.730;8.614;2022-07-09T01:50:36;18.40;54.80
27114;DHT22;14648;49.730;8.614;2022-07-09T01:53:02;18.40;54.90
27114;DHT22;14648;49.730;8.614;2022-07-09T01:55:27;18.40;54.90
27114;DHT22;14648;49.730;8.614;2022-07-09T01:57:53;18.40;55.00
27114;DHT22;14648;49.730;8.614;2022-07-09T02:00:19;18.30;55.00
27114;DHT22;14648;49.730;8.614;2022-07-09T02:02:44;18.30;55.10
27114;DHT22;14648;49.730;8.614;2022-07-09T02:05:10;18.20;55.10
27114;DHT22;14648;49.730;8.614;2022-07-09T02:07:36;18.30;55.30
27114;DHT22;14648;49.730;8.614;2022-07-09T02:10:06;18.20;55.30
27114;DHT22;14648;49.730;8.614;2022-07-09T02:12:32;18.20;55.40
27114;DHT22;14648;49.730;8.614;2022-07-09T02:14:57;18.20;55.50
27114;DHT22;14648;49.730;8.614;2022-07-09T02:17:23;18.10;55.50
27114;DHT22;14648;49.730;8.614;2022-07-09T02:19:49;18.10;55.60
27114;DHT22;14648;49.730;8.614;2022-07-09T02:22:15;18.10;55.70
27114;DHT22;14648;49.730;8.614;2022-07-09T02:24:41;18.10;55.70
27114;DHT22;14648;49.730;8.614;2022-07-09T02:27:06;18.00;55.80
27114;DHT22;14648;49.730;8.614;2022-07-09T02:29:32;18.00;55.80
27114;DHT22;14648;49.730;8.614;2022-07-09T02:31:58;18.00;55.90
27114;DHT22;14648;49.730;8.614;2022-07-09T02:34:24;17.90;55.90
27114;DHT22;14648;49.730;8.614;2022-07-09T02:36:51;17.90;55.90
27114;DHT22;14648;49.730;8.614;2022-07-09T02:39:17;17.90;55.90
27114;DHT22;14648;49.730;8.614;2022-07-09T02:41:43;17.90;56.00
27114;DHT22;14648;49.730;8.614;2022-07-09T02:44:09;17.90;56.00
27114;DHT22;14648;49.730;8.614;2022-07-09T02:46:35;17.90;56.00
27114;DHT22;14648;49.730;8.614;2022-07-09T02:49:01;17.80;56.10
27114;DHT22;14648;49.730;8.614;2022-07-09T02:51:29;17.80;56.10
27114;DHT22;14648;49.730;8.614;2022-07-09T02:53:54;17.80;56.30
27114;DHT22;14648;49.730;8.614;2022-07-09T02:56:20;17.80;56.10
27114;DHT22;14648;49.730;8.614;2022-07-09T02:58:46;17.80;56.10
27114;DHT22;14648;49.730;8.614;2022-07-09T03:01:11;17.80;56.20
27114;DHT22;14648;49.730;8.614;2022-07-09T03:03:37;17.70;56.20
27114;DHT22;14648;49.730;8.614;2022-07-09T03:06:04;17.70;56.30
27114;DHT22;14648;49.730;8.614;2022-07-09T03:08:31;17.70;56.40
27114;DHT22;14648;49.730;8.614;2022-07-09T03:10:57;17.70;56.40
27114;DHT22;14648;49.730;8.614;2022-07-09T03:13:22;17.80;56.50
27114;DHT22;14648;49.730;8.614;2022-07-09T03:15:48;17.70;56.60
27114;DHT22;14648;49.730;8.614;2022-07-09T03:18:14;17.70;56.60
27114;DHT22;14648;49.730;8.614;2022-07-09T03:20:40;17.70;56.70
27114;DHT22;14648;49.730;8.614;2022-07-09T03:23:06;17.70;56.70
27114;DHT22;14648;49.730;8.614;2022-07-09T03:25:32;17.70;56.80
27114;DHT22;14648;49.730;8.614;2022-07-09T03:27:58;17.60;56.70
27114;DHT22;14648;49.730;8.614;2022-07-09T03:30:24;17.60;56.80
27114;DHT22;14648;49.730;8.614;2022-07-09T03:32:50;17.60;56.80
27114;DHT22;14648;49.730;8.614;2022-07-09T03:35:16;17.60;56.90
27114;DHT22;14648;49.730;8.614;2022-07-09T03:37:42;17.60;56.90
27114;DHT22;14648;49.730;8.614;2022-07-09T03:40:08;17.50;56.90
27114;DHT22;14648;49.730;8.614;2022-07-09T03:42:35;17.50;57.10
27114;DHT22;14648;49.730;8.614;2022-07-09T03:45:00;17.60;57.10
27114;DHT22;14648;49.730;8.614;2022-07-09T03:47:26;17.50;57.10
27114;DHT22;14648;49.730;8.614;2022-07-09T03:49:52;17.50;57.20
27114;DHT22;14648;49.730;8.614;2022-07-09T03:52:18;17.40;57.30
27114;DHT22;14648;49.730;8.614;2022-07-09T03:54:43;17.40;57.20
27114;DHT22;14648;49.730;8.614;2022-07-09T03:57:10;17.50;57.30
27114;DHT22;14648;49.730;8.614;2022-07-09T03:59:35;17.40;57.30
27114;DHT22;14648;49.730;8.614;2022-07-09T04:02:02;17.40;57.30
27114;DHT22;14648;49.730;8.614;2022-07-09T04:04:29;17.50;57.50
27114;DHT22;14648;49.730;8.614;2022-07-09T04:06:55;17.40;57.40
27114;DHT22;14648;49.730;8.614;2022-07-09T04:09:21;17.40;57.40
27114;DHT22;14648;49.730;8.614;2022-07-09T04:11:46;17.40;57.40
27114;DHT22;14648;49.730;8.614;2022-07-09T04:14:12;17.40;57.50
27114;DHT22;14648;49.730;8.614;2022-07-09T04:16:40;17.40;57.60
27114;DHT22;14648;49.730;8.614;2022-07-09T04:19:06;17.40;57.60
27114;DHT22;14648;49.730;8.614;2022-07-09T04:21:32;17.40;57.70
27114;DHT22;14648;49.730;8.614;2022-07-09T04:23:57;17.40;57.70
27114;DHT22;14648;49.730;8.614;2022-07-09T04:26:23;17.40;57.70
27114;DHT22;14648;49.730;8.614;2022-07-09T04:28:49;17.40;57.70
27114;DHT22;14648;49.730;8.614;2022-07-09T04:31:15;17.40;57.80
27114;DHT22;14648;49.730;8.614;2022-07-09T04:33:42;17.50;57.90
27114;DHT22;14648;49.730;8.614;2022-07-09T04:36:09;17.40;57.90
27114;DHT22;14648;49.730;8.614;2022-07-09T04:38:34;17.40;57.90
27114;DHT22;14648;49.730;8.614;2022-07-09T04:41:00;17.50;58.10
27114;DHT22;14648;49.730;8.614;2022-07-09T04:43:26;17.50;58.10
27114;DHT22;14648;49.730;8.614;2022-07-09T04:45:52;17.50;58.10
27114;DHT22;14648;49.730;8.614;2022-07-09T04:48:17;17.50;58.20
27114;DHT22;14648;49.730;8.614;2022-07-09T04:50:43;17.50;58.10
27114;DHT22;14648;49.730;8.614;2022-07-09T04:53:09;17.50;58.20
27114;DHT22;14648;49.730;8.614;2022-07-09T04:55:35;17.60;58.20
27114;DHT22;14648;49.730;8.614;2022-07-09T04:58:00;17.60;58.30
27114;DHT22;14648;49.730;8.614;2022-07-09T05:00:26;17.60;58.30
27114;DHT22;14648;49.730;8.614;2022-07-09T05:02:51;17.60;58.40
27114;DHT22;14648;49.730;8.614;2022-07-09T05:05:17;17.60;58.50
27114;DHT22;14648;49.730;8.614;2022-07-09T05:07:47;17.60;58.50
27114;DHT22;14648;49.730;8.614;2022-07-09T05:10:13;17.60;58.60
27114;DHT22;14648;49.730;8.614;2022-07-09T05:12:39;17.70;58.70
27114;DHT22;14648;49.730;8.614;2022-07-09T05:15:06;17.70;58.80
27114;DHT22;14648;49.730;8.614;2022-07-09T05:17:36;17.70;58.80
27114;DHT22;14648;49.730;8.614;2022-07-09T05:20:03;17.70;58.90
27114;DHT22;14648;49.730;8.614;2022-07-09T05:22:31;17.70;58.80
27114;DHT22;14648;49.730;8.614;2022-07-09T05:24:58;17.80;58.80
27114;DHT22;14648;49.730;8.614;2022-07-09T05:27:24;17.80;58.60
27114;DHT22;14648;49.730;8.614;2022-07-09T05:29:51;17.90;59.40
27114;DHT22;14648;49.730;8.614;2022-07-09T05:32:17;17.90;58.90
27114;DHT22;14648;49.730;8.614;2022-07-09T05:34:42;18.00;58.80
27114;DHT22;14648;49.730;8.614;2022-07-09T05:37:08;18.00;58.80
27114;DHT22;14648;49.730;8.614;2022-07-09T05:39:34;18.10;58.90
27114;DHT22;14648;49.730;8.614;2022-07-09T05:42:00;18.10;58.80
27114;DHT22;14648;49.730;8.614;2022-07-09T05:44:26;18.20;58.80
27114;DHT22;14648;49.730;8.614;2022-07-09T05:46:51;18.20;58.70
27114;DHT22;14648;49.730;8.614;2022-07-09T05:49:17;18.30;58.70
27114;DHT22;14648;49.730;8.614;2022-07-09T05:51:43;18.30;58.80
27114;DHT22;14648;49.730;8.614;2022-07-09T05:54:09;18.30;59.40
27114;DHT22;14648;49.730;8.614;2022-07-09T05:56:35;18.40;58.80
27114;DHT22;14648;49.730;8.614;2022-07-09T05:59:03;18.40;58.90
27114;DHT22;14648;49.730;8.614;2022-07-09T06:01:29;18.40;58.90
27114;DHT22;14648;49.730;8.614;2022-07-09T06:03:55;18.50;59.00
27114;DHT22;14648;49.730;8.614;2022-07-09T06:06:21;18.50;59.00
27114;DHT22;14648;49.730;8.614;2022-07-09T06:08:47;18.60;59.00
27114;DHT22;14648;49.730;8.614;2022-07-09T06:11:13;18.60;59.00
27114;DHT22;14648;49.730;8.614;2022-07-09T06:13:39;18.60;59.00
27114;DHT22;14648;49.730;8.614;2022-07-09T06:16:05;18.70;58.90
27114;DHT22;14648;49.730;8.614;2022-07-09T06:18:31;18.70;58.80
27114;DHT22;14648;49.730;8.614;2022-07-09T06:20:57;18.80;58.70
27114;DHT22;14648;49.730;8.614;2022-07-09T06:23:25;18.90;58.60
27114;DHT22;14648;49.730;8.614;2022-07-09T06:25:50;18.90;58.50
27114;DHT22;14648;49.730;8.614;2022-07-09T06:28:16;19.00;58.40
27114;DHT22;14648;49.730;8.614;2022-07-09T06:30:41;19.10;58.40
27114;DHT22;14648;49.730;8.614;2022-07-09T06:33:07;19.10;58.20
27114;DHT22;14648;49.730;8.614;2022-07-09T06:35:33;19.20;58.20
27114;DHT22;14648;49.730;8.614;2022-07-09T06:37:58;19.30;58.00
27114;DHT22;14648;49.730;8.614;2022-07-09T06:40:26;19.30;58.00
27114;DHT22;14648;49.730;8.614;2022-07-09T06:42:51;19.40;57.60
27114;DHT22;14648;49.730;8.614;2022-07-09T06:45:17;19.50;57.60
27114;DHT22;14648;49.730;8.614;2022-07-09T06:47:43;19.50;57.50
27114;DHT22;14648;49.730;8.614;2022-07-09T06:50:09;19.60;57.50
27114;DHT22;14648;49.730;8.614;2022-07-09T06:52:34;19.60;57.60
27114;DHT22;14648;49.730;8.614;2022-07-09T06:55:00;19.70;57.60
27114;DHT22;14648;49.730;8.614;2022-07-09T06:57:27;19.80;57.80
27114;DHT22;14648;49.730;8.614;2022-07-09T06:59:54;19.80;57.40
27114;DHT22;14648;49.730;8.614;2022-07-09T07:02:19;19.90;58.10
27114;DHT22;14648;49.730;8.614;2022-07-09T07:04:45;20.00;57.30
27114;DHT22;14648;49.730;8.614;2022-07-09T07:07:11;20.10;57.30
27114;DHT22;14648;49.730;8.614;2022-07-09T07:09:36;20.30;57.40
27114;DHT22;14648;49.730;8.614;2022-07-09T07:12:03;20.30;57.20
27114;DHT22;14648;49.730;8.614;2022-07-09T07:14:29;20.40;57.00
27114;DHT22;14648;49.730;8.614;2022-07-09T07:16:55;20.50;57.10
27114;DHT22;14648;49.730;8.614;2022-07-09T07:19:21;20.60;56.90
27114;DHT22;14648;49.730;8.614;2022-07-09T07:21:50;20.70;56.70
27114;DHT22;14648;49.730;8.614;2022-07-09T07:24:15;20.80;56.30
27114;DHT22;14648;49.730;8.614;2022-07-09T07:26:41;20.90;55.80
27114;DHT22;14648;49.730;8.614;2022-07-09T07:29:07;21.00;55.60
27114;DHT22;14648;49.730;8.614;2022-07-09T07:31:33;21.10;55.70
27114;DHT22;14648;49.730;8.614;2022-07-09T07:33:59;21.20;55.50
27114;DHT22;14648;49.730;8.614;2022-07-09T07:36:27;21.30;56.10
27114;DHT22;14648;49.730;8.614;2022-07-09T07:38:54;21.40;55.20
27114;DHT22;14648;49.730;8.614;2022-07-09T07:41:20;21.60;55.00
27114;DHT22;14648;49.730;8.614;2022-07-09T07:43:46;21.70;55.10
27114;DHT22;14648;49.730;8.614;2022-07-09T07:46:14;21.80;54.70
27114;DHT22;14648;49.730;8.614;2022-07-09T07:48:39;21.90;54.90
27114;DHT22;14648;49.730;8.614;2022-07-09T07:51:08;22.00;55.00
27114;DHT22;14648;49.730;8.614;2022-07-09T07:53:35;22.10;54.90
27114;DHT22;14648;49.730;8.614;2022-07-09T07:56:05;22.20;54.80
27114;DHT22;14648;49.730;8.614;2022-07-09T07:58:32;22.20;54.60
27114;DHT22;14648;49.730;8.614;2022-07-09T08:00:58;22.30;54.20
27114;DHT22;14648;49.730;8.614;2022-07-09T08:03:25;22.40;54.40
27114;DHT22;14648;49.730;8.614;2022-07-09T08:05:50;22.40;53.10
27114;DHT22;14648;49.730;8.614;2022-07-09T08:08:16;22.50;53.10
27114;DHT22;14648;49.730;8.614;2022-07-09T08:10:44;22.70;53.30
27114;DHT22;14648;49.730;8.614;2022-07-09T08:13:11;22.80;53.40
27114;DHT22;14648;49.730;8.614;2022-07-09T08:15:37;23.00;52.80
27114;DHT22;14648;49.730;8.614;2022-07-09T08:18:04;23.20;52.40
27114;DHT22;14648;49.730;8.614;2022-07-09T08:20:29;23.40;51.90
27114;DHT22;14648;49.730;8.614;2022-07-09T08:22:55;23.50;52.90
27114;DHT22;14648;49.730;8.614;2022-07-09T08:25:21;23.60;51.50
27114;DHT22;14648;49.730;8.614;2022-07-09T08:27:47;23.80;51.90
27114;DHT22;14648;49.730;8.614;2022-07-09T08:30:14;24.00;51.30
27114;DHT22;14648;49.730;8.614;2022-07-09T08:32:40;24.10;50.60
27114;DHT22;14648;49.730;8.614;2022-07-09T08:35:06;24.30;50.70
27114;DHT22;14648;49.730;8.614;2022-07-09T08:37:32;24.50;50.30
27114;DHT22;14648;49.730;8.614;2022-07-09T08:40:00;24.70;49.50
27114;DHT22;14648;49.730;8.614;2022-07-09T08:42:26;25.00;49.40
27114;DHT22;14648;49.730;8.614;2022-07-09T08:44:52;25.10;48.80
27114;DHT22;14648;49.730;8.614;2022-07-09T08:47:19;25.10;48.70
27114;DHT22;14648;49.730;8.614;2022-07-09T08:49:46;25.10;48.30
27114;DHT22;14648;49.730;8.614;2022-07-09T08:52:13;25.10;47.80
27114;DHT22;14648;49.730;8.614;2022-07-09T08:54:40;25.00;47.70
27114;DHT22;14648;49.730;8.614;2022-07-09T08:57:08;24.90;47.30
27114;DHT22;14648;49.730;8.614;2022-07-09T08:59:34;24.90;47.70
27114;DHT22;14648;49.730;8.614;2022-07-09T09:02:07;24.80;47.10
27114;DHT22;14648;49.730;8.614;2022-07-09T09:04:37;24.70;46.80
27114;DHT22;14648;49.730;8.614;2022-07-09T09:07:18;24.80;47.20
27114;DHT22;14648;49.730;8.614;2022-07-09T09:09:45;24.90;46.70
27114;DHT22;14648;49.730;8.614;2022-07-09T09:12:12;25.10;46.80
27114;DHT22;14648;49.730;8.614;2022-07-09T09:14:39;25.30;46.40
27114;DHT22;14648;49.730;8.614;2022-07-09T09:17:09;25.50;46.10
27114;DHT22;14648;49.730;8.614;2022-07-09T09:19:38;25.60;46.70
27114;DHT22;14648;49.730;8.614;2022-07-09T09:22:04;25.80;46.10
27114;DHT22;14648;49.730;8.614;2022-07-09T09:24:31;26.00;45.70
27114;DHT22;14648;49.730;8.614;2022-07-09T09:26:58;26.10;45.40
27114;DHT22;14648;49.730;8.614;2022-07-09T09:29:25;26.00;45.00
27114;DHT22;14648;49.730;8.614;2022-07-09T09:31:51;26.10;44.80
27114;DHT22;14648;49.730;8.614;2022-07-09T09:34:18;26.10;44.90
27114;DHT22;14648;49.730;8.614;2022-07-09T09:36:46;26.20;44.30
27114;DHT22;14648;49.730;8.614;2022-07-09T09:39:20;26.20;44.10
27114;DHT22;14648;49.730;8.614;2022-07-09T09:41:52;26.20;43.90
27114;DHT22;14648;49.730;8.614;2022-07-09T09:44:22;26.10;43.90
27114;DHT22;14648;49.730;8.614;2022-07-09T09:46:51;26.20;44.10
27114;DHT22;14648;49.730;8.614;2022-07-09T09:49:18;26.30;43.90
27114;DHT22;14648;49.730;8.614;2022-07-09T09:52:23;26.30;43.70
27114;DHT22;14648;49.730;8.614;2022-07-09T09:54:44;26.20;43.50
27114;DHT22;14648;49.730;8.614;2022-07-09T09:57:13;26.10;43.90
27114;DHT22;14648;49.730;8.614;2022-07-09T09:59:42;25.90;43.70
27114;DHT22;14648;49.730;8.614;2022-07-09T10:02:12;25.90;43.70
27114;DHT22;14648;49.730;8.614;2022-07-09T10:04:40;25.90;44.10
27114;DHT22;14648;49.730;8.614;2022-07-09T10:07:09;26.00;44.70
27114;DHT22;14648;49.730;8.614;2022-07-09T10:09:36;26.10;44.80
27114;DHT22;14648;49.730;8.614;2022-07-09T10:12:02;26.10;45.40
27114;DHT22;14648;49.730;8.614;2022-07-09T10:14:33;26.30;44.80
27114;DHT22;14648;49.730;8.614;2022-07-09T10:17:16;26.60;43.60
27114;DHT22;14648;49.730;8.614;2022-07-09T10:19:55;26.90;43.00
27114;DHT22;14648;49.730;8.614;2022-07-09T10:22:37;27.00;42.50
27114;DHT22;14648;49.730;8.614;2022-07-09T10:25:04;27.00;41.60
27114;DHT22;14648;49.730;8.614;2022-07-09T10:27:41;26.80;41.40
27114;DHT22;14648;49.730;8.614;2022-07-09T10:30:30;26.70;41.30
27114;DHT22;14648;49.730;8.614;2022-07-09T10:38:14;26.80;40.50
27114;DHT22;14648;49.730;8.614;2022-07-09T10:40:42;26.90;40.70
27114;DHT22;14648;49.730;8.614;2022-07-09T10:43:09;26.90;40.00
27114;DHT22;14648;49.730;8.614;2022-07-09T10:45:44;27.00;40.90
27114;DHT22;14648;49.730;8.614;2022-07-09T10:48:12;27.10;40.70
27114;DHT22;14648;49.730;8.614;2022-07-09T10:50:43;27.40;39.90
27114;DHT22;14648;49.730;8.614;2022-07-09T10:53:12;27.60;39.70
27114;DHT22;14648;49.730;8.614;2022-07-09T10:55:42;27.60;39.60
27114;DHT22;14648;49.730;8.614;2022-07-09T10:58:23;27.60;39.70
27114;DHT22;14648;49.730;8.614;2022-07-09T11:00:57;27.60;39.60
27114;DHT22;14648;49.730;8.614;2022-07-09T11:03:28;27.70;39.00
27114;DHT22;14648;49.730;8.614;2022-07-09T11:05:55;27.60;38.50
27114;DHT22;14648;49.730;8.614;2022-07-09T11:08:21;27.60;38.70
27114;DHT22;14648;49.730;8.614;2022-07-09T11:10:47;27.70;38.70
27114;DHT22;14648;49.730;8.614;2022-07-09T11:13:13;27.80;38.10
27114;DHT22;14648;49.730;8.614;2022-07-09T11:15:39;28.00;38.20
27114;DHT22;14648;49.730;8.614;2022-07-09T11:18:06;28.10;37.90
27114;DHT22;14648;49.730;8.614;2022-07-09T11:20:40;28.30;37.30
27114;DHT22;14648;49.730;8.614;2022-07-09T11:23:15;28.30;37.20
27114;DHT22;14648;49.730;8.614;2022-07-09T11:25:42;28.30;36.70
27114;DHT22;14648;49.730;8.614;2022-07-09T11:28:09;28.30;36.60
27114;DHT22;14648;49.730;8.614;2022-07-09T11:30:59;28.30;36.40
27114;DHT22;14648;49.730;8.614;2022-07-09T11:33:26;28.20;36.20
27114;DHT22;14648;49.730;8.614;2022-07-09T11:35:52;28.00;36.30
27114;DHT22;14648;49.730;8.614;2022-07-09T11:38:18;27.90;35.80
27114;DHT22;14648;49.730;8.614;2022-07-09T11:40:44;27.70;35.90
27114;DHT22;14648;49.730;8.614;2022-07-09T11:43:16;27.60;36.20
27114;DHT22;14648;49.730;8.614;2022-07-09T11:45:52;27.60;36.00
27114;DHT22;14648;49.730;8.614;2022-07-09T11:48:18;27.70;36.30
27114;DHT22;14648;49.730;8.614;2022-07-09T11:50:46;27.60;36.60
27114;DHT22;14648;49.730;8.614;2022-07-09T11:53:22;27.80;36.10
27114;DHT22;14648;49.730;8.614;2022-07-09T11:55:59;28.10;36.00
27114;DHT22;14648;49.730;8.614;2022-07-09T11:58:29;28.30;35.10
27114;DHT22;14648;49.730;8.614;2022-07-09T12:00:56;28.50;34.90
27114;DHT22;14648;49.730;8.614;2022-07-09T12:03:26;28.50;34.40
27114;DHT22;14648;49.730;8.614;2022-07-09T12:05:53;28.50;34.00
27114;DHT22;14648;49.730;8.614;2022-07-09T12:08:27;28.50;34.10
27114;DHT22;14648;49.730;8.614;2022-07-09T12:10:55;28.40;34.00
27114;DHT22;14648;49.730;8.614;2022-07-09T12:13:21;28.20;33.60
27114;DHT22;14648;49.730;8.614;2022-07-09T12:15:46;28.00;33.20
27114;DHT22;14648;49.730;8.614;2022-07-09T12:18:12;27.90;32.80
27114;DHT22;14648;49.730;8.614;2022-07-09T12:20:38;27.70;33.20
27114;DHT22;14648;49.730;8.614;2022-07-09T12:23:03;27.70;33.60
27114;DHT22;14648;49.730;8.614;2022-07-09T12:25:29;27.80;34.00
27114;DHT22;14648;49.730;8.614;2022-07-09T12:27:55;28.00;34.50
27114;DHT22;14648;49.730;8.614;2022-07-09T12:30:21;28.20;34.40
27114;DHT22;14648;49.730;8.614;2022-07-09T12:32:47;28.40;33.80
27114;DHT22;14648;49.730;8.614;2022-07-09T12:35:13;28.50;33.30
27114;DHT22;14648;49.730;8.614;2022-07-09T12:37:40;28.50;32.90
27114;DHT22;14648;49.730;8.614;2022-07-09T12:40:08;28.40;33.10
27114;DHT22;14648;49.730;8.614;2022-07-09T12:42:35;28.30;33.00
27114;DHT22;14648;49.730;8.614;2022-07-09T12:45:02;28.30;33.20
27114;DHT22;14648;49.730;8.614;2022-07-09T12:47:29;28.30;33.00
27114;DHT22;14648;49.730;8.614;2022-07-09T12:49:54;28.40;32.60
27114;DHT22;14648;49.730;8.614;2022-07-09T12:52:20;28.50;33.00
27114;DHT22;14648;49.730;8.614;2022-07-09T12:54:46;28.60;32.90
27114;DHT22;14648;49.730;8.614;2022-07-09T12:57:11;28.70;32.50
27114;DHT22;14648;49.730;8.614;2022-07-09T12:59:38;28.70;32.30
27114;DHT22;14648;49.730;8.614;2022-07-09T13:02:05;28.70;32.20
27114;DHT22;14648;49.730;8.614;2022-07-09T13:04:31;28.70;32.20
27114;DHT22;14648;49.730;8.614;2022-07-09T13:06:57;28.80;32.30
27114;DHT22;14648;49.730;8.614;2022-07-09T13:09:23;28.80;32.30
27114;DHT22;14648;49.730;8.614;2022-07-09T13:11:48;28.80;32.10
27114;DHT22;14648;49.730;8.614;2022-07-09T13:14:15;28.80;31.90
27114;DHT22;14648;49.730;8.614;2022-07-09T13:16:41;28.70;31.90
27114;DHT22;14648;49.730;8.614;2022-07-09T13:19:07;28.70;32.00
27114;DHT22;14648;49.730;8.614;2022-07-09T13:21:32;28.70;32.30
27114;DHT22;14648;49.730;8.614;2022-07-09T13:23:58;28.80;32.20
27114;DHT22;14648;49.730;8.614;2022-07-09T13:26:24;28.90;31.90
27114;DHT22;14648;49.730;8.614;2022-07-09T13:28:50;29.00;32.80
27114;DHT22;14648;49.730;8.614;2022-07-09T13:31:16;29.10;32.50
27114;DHT22;14648;49.730;8.614;2022-07-09T13:33:42;29.10;32.20
27114;DHT22;14648;49.730;8.614;2022-07-09T13:36:08;29.10;32.50
27114;DHT22;14648;49.730;8.614;2022-07-09T13:38:34;29.20;32.50
27114;DHT22;14648;49.730;8.614;2022-07-09T13:41:01;29.30;32.40
27114;DHT22;14648;49.730;8.614;2022-07-09T13:43:27;29.40;31.90
27114;DHT22;14648;49.730;8.614;2022-07-09T13:45:57;29.50;31.90
27114;DHT22;14648;49.730;8.614;2022-07-09T13:48:24;29.50;32.00
27114;DHT22;14648;49.730;8.614;2022-07-09T13:50:51;29.60;31.80
27114;DHT22;14648;49.730;8.614;2022-07-09T13:53:17;29.70;31.80
27114;DHT22;14648;49.730;8.614;2022-07-09T13:55:43;29.90;31.50
27114;DHT22;14648;49.730;8.614;2022-07-09T13:58:12;30.20;31.70
27114;DHT22;14648;49.730;8.614;2022-07-09T14:00:41;30.50;31.40
27114;DHT22;14648;49.730;8.614;2022-07-09T14:03:06;30.70;31.00
27114;DHT22;14648;49.730;8.614;2022-07-09T14:05:32;30.90;30.70
27114;DHT22;14648;49.730;8.614;2022-07-09T14:07:58;30.80;30.40
27114;DHT22;14648;49.730;8.614;2022-07-09T14:10:24;30.70;30.40
27114;DHT22;14648;49.730;8.614;2022-07-09T14:12:50;30.50;30.40
27114;DHT22;14648;49.730;8.614;2022-07-09T14:15:16;30.30;30.60
27114;DHT22;14648;49.730;8.614;2022-07-09T14:17:43;30.30;30.60
27114;DHT22;14648;49.730;8.614;2022-07-09T14:20:09;30.40;30.30
27114;DHT22;14648;49.730;8.614;2022-07-09T14:22:35;30.50;29.90
27114;DHT22;14648;49.730;8.614;2022-07-09T14:25:01;30.50;29.70
27114;DHT22;14648;49.730;8.614;2022-07-09T14:27:27;30.40;29.90
27114;DHT22;14648;49.730;8.614;2022-07-09T14:29:53;30.30;30.10
27114;DHT22;14648;49.730;8.614;2022-07-09T14:32:18;30.20;30.10
27114;DHT22;14648;49.730;8.614;2022-07-09T14:34:44;30.20;30.20
27114;DHT22;14648;49.730;8.614;2022-07-09T14:37:10;30.20;30.10
27114;DHT22;14648;49.730;8.614;2022-07-09T14:39:35;30.20;29.60
27114;DHT22;14648;49.730;8.614;2022-07-09T14:42:01;30.20;29.60
27114;DHT22;14648;49.730;8.614;2022-07-09T14:44:27;30.10;29.20
27114;DHT22;14648;49.730;8.614;2022-07-09T14:46:56;30.10;29.30
27114;DHT22;14648;49.730;8.614;2022-07-09T14:49:25;29.90;28.90
27114;DHT22;14648;49.730;8.614;2022-07-09T14:51:50;29.90;29.00
27114;DHT22;14648;49.730;8.614;2022-07-09T14:54:18;29.80;29.00
27114;DHT22;14648;49.730;8.614;2022-07-09T14:56:45;29.70;29.10
27114;DHT22;14648;49.730;8.614;2022-07-09T14:59:11;29.60;29.10
27114;DHT22;14648;49.730;8.614;2022-07-09T15:01:38;29.60;29.20
27114;DHT22;14648;49.730;8.614;2022-07-09T15:04:04;29.50;29.10
27114;DHT22;14648;49.730;8.614;2022-07-09T15:06:30;29.40;29.10
27114;DHT22;14648;49.730;8.614;2022-07-09T15:08:57;29.30;29.30
27114;DHT22;14648;49.730;8.614;2022-07-09T15:11:23;29.20;29.50
27114;DHT22;14648;49.730;8.614;2022-07-09T15:13:49;29.00;29.60
27114;DHT22;14648;49.730;8.614;2022-07-09T15:16:14;28.90;29.40
27114;DHT22;14648;49.730;8.614;2022-07-09T15:18:40;28.90;29.70
27114;DHT22;14648;49.730;8.614;2022-07-09T15:21:06;28.80;30.00
27114;DHT22;14648;49.730;8.614;2022-07-09T15:23:33;28.90;30.40
27114;DHT22;14648;49.730;8.614;2022-07-09T15:25:59;28.80;30.40
27114;DHT22;14648;49.730;8.614;2022-07-09T15:28:25;28.90;30.40
27114;DHT22;14648;49.730;8.614;2022-07-09T15:30:50;28.90;30.00
27114;DHT22;14648;49.730;8.614;2022-07-09T15:33:16;28.90;29.70